sensor_id;sensor_type;location;lat;lon;timestamp;P1;durP1;ratioP1;P2;durP2;ratioP2
65039;SDS011;51606;45.000;38.612;2023-03-21T04:50:30;1.75;;;1.23;;
65039;SDS011;51606;45.000;38.612;2023-03-21T04:52:58;3.22;;;0.88;;
65039;SDS011;51606;45.000;38.612;2023-03-21T04:55:25;0.30;;;0.30;;
65039;SDS011;51606;45.000;38.612;2023-03-21T04:57:54;0.65;;;0.47;;
65039;SDS011;51606;45.000;38.612;2023-03-21T05:00:20;1.10;;;0.77;;
65039;SDS011;51606;45.000;38.612;2023-03-21T05:02:48;6.38;;;0.50;;
65039;SDS011;51606;45.000;38.612;2023-03-21T05:05:14;0.55;;;0.45;;
65039;SDS011;51606;45.000;38.612;2023-03-21T05:07:41;6.07;;;1.52;;
65039;SDS011;51606;45.000;38.612;2023-03-21T05:10:09;0.60;;;0.60;;
65039;SDS011;51606;45.000;38.612;2023-03-21T05:12:39;0.93;;;0.82;;
65039;SDS011;51606;45.000;38.612;2023-03-21T05:15:07;0.50;;;0.50;;
65039;SDS011;51606;45.000;38.612;2023-03-21T05:17:35;15.57;;;1.52;;
65039;SDS011;51606;45.000;38.612;2023-03-21T05:20:01;0.47;;;0.43;;
65039;SDS011;51606;45.000;38.612;2023-03-21T05:22:34;2.85;;;2.08;;
65039;SDS011;51606;45.000;38.612;2023-03-21T05:25:08;3.80;;;2.42;;
65039;SDS011;51606;45.000;38.612;2023-03-21T05:30:23;2.65;;;0.60;;
65039;SDS011;51606;45.000;38.612;2023-03-21T05:32:55;0.93;;;0.50;;
65039;SDS011;51606;45.000;38.612;2023-03-21T05:35:22;0.20;;;0.20;;
65039;SDS011;51606;45.000;38.612;2023-03-21T05:37:49;1.73;;;1.00;;
65039;SDS011;51606;45.000;38.612;2023-03-21T05:40:16;1.42;;;1.33;;
65039;SDS011;51606;45.000;38.612;2023-03-21T05:42:45;2.72;;;1.65;;
65039;SDS011;51606;45.000;38.612;2023-03-21T05:47:47;2.70;;;1.48;;
65039;SDS011;51606;45.000;38.612;2023-03-21T05:50:14;3.58;;;1.23;;
65039;SDS011;51606;45.000;38.612;2023-03-21T05:52:44;4.70;;;1.10;;
65039;SDS011;51606;45.000;38.612;2023-03-21T05:55:13;2.80;;;1.10;;
65039;SDS011;51606;45.000;38.612;2023-03-21T05:57:39;1.98;;;1.30;;
65039;SDS011;51606;45.000;38.612;2023-03-21T06:00:09;3.38;;;1.35;;
65039;SDS011;51606;45.000;38.612;2023-03-21T06:02:42;9.73;;;1.08;;
65039;SDS011;51606;45.000;38.612;2023-03-21T06:05:35;2.78;;;1.20;;
65039;SDS011;51606;45.000;38.612;2023-03-21T06:08:04;1.38;;;1.23;;
65039;SDS011;51606;45.000;38.612;2023-03-21T06:10:30;10.48;;;1.52;;
65039;SDS011;51606;45.000;38.612;2023-03-21T06:13:00;1.80;;;0.88;;
65039;SDS011;51606;45.000;38.612;2023-03-21T06:15:31;0.40;;;0.40;;
65039;SDS011;51606;45.000;38.612;2023-03-21T06:18:11;0.57;;;0.43;;
65039;SDS011;51606;45.000;38.612;2023-03-21T06:20:46;0.40;;;0.40;;
65039;SDS011;51606;45.000;38.612;2023-03-21T06:23:13;0.30;;;0.30;;
65039;SDS011;51606;45.000;38.612;2023-03-21T06:25:40;1.00;;;0.90;;
65039;SDS011;51606;45.000;38.612;2023-03-21T06:28:07;9.50;;;1.20;;
65039;SDS011;51606;45.000;38.612;2023-03-21T06:30:38;10.43;;;4.03;;
65039;SDS011;51606;45.000;38.612;2023-03-21T06:33:15;4.95;;;1.38;;
65039;SDS011;51606;45.000;38.612;2023-03-21T06:35:43;1.63;;;1.10;;
65039;SDS011;51606;45.000;38.612;2023-03-21T06:38:09;1.88;;;0.57;;
65039;SDS011;51606;45.000;38.612;2023-03-21T06:40:37;5.07;;;0.73;;
65039;SDS011;51606;45.000;38.612;2023-03-21T06:43:05;0.20;;;0.20;;
65039;SDS011;51606;45.000;38.612;2023-03-21T06:45:32;0.70;;;0.50;;
65039;SDS011;51606;45.000;38.612;2023-03-21T06:47:58;1.00;;;0.73;;
65039;SDS011;51606;45.000;38.612;2023-03-21T06:50:39;0.22;;;0.22;;
65039;SDS011;51606;45.000;38.612;2023-03-21T06:53:06;0.43;;;0.43;;
65039;SDS011;51606;45.000;38.612;2023-03-21T06:55:50;0.13;;;0.13;;
65039;SDS011;51606;45.000;38.612;2023-03-21T06:58:18;0.20;;;0.20;;
65039;SDS011;51606;45.000;38.612;2023-03-21T07:00:46;0.20;;;0.20;;
65039;SDS011;51606;45.000;38.612;2023-03-21T07:03:13;0.17;;;0.17;;
65039;SDS011;51606;45.000;38.612;2023-03-21T07:05:40;0.40;;;0.40;;
65039;SDS011;51606;45.000;38.612;2023-03-21T07:08:07;0.20;;;0.20;;
65039;SDS011;51606;45.000;38.612;2023-03-21T07:10:38;1.00;;;0.57;;
65039;SDS011;51606;45.000;38.612;2023-03-21T07:13:05;5.05;;;0.95;;
65039;SDS011;51606;45.000;38.612;2023-03-21T07:18:07;0.43;;;0.43;;
65039;SDS011;51606;45.000;38.612;2023-03-21T07:20:35;0.30;;;0.30;;
65039;SDS011;51606;45.000;38.612;2023-03-21T07:23:04;1.00;;;0.60;;
65039;SDS011;51606;45.000;38.612;2023-03-21T07:25:31;1.60;;;0.98;;
65039;SDS011;51606;45.000;38.612;2023-03-21T07:27:59;0.30;;;0.30;;
65039;SDS011;51606;45.000;38.612;2023-03-21T07:30:26;0.57;;;0.57;;
65039;SDS011;51606;45.000;38.612;2023-03-21T07:32:53;1.85;;;1.08;;
65039;SDS011;51606;45.000;38.612;2023-03-21T07:35:19;2.90;;;1.20;;
65039;SDS011;51606;45.000;38.612;2023-03-21T07:37:46;1.73;;;1.63;;
65039;SDS011;51606;45.000;38.612;2023-03-21T07:40:15;5.95;;;3.15;;
65039;SDS011;51606;45.000;38.612;2023-03-21T07:42:41;5.25;;;3.38;;
65039;SDS011;51606;45.000;38.612;2023-03-21T07:45:10;2.97;;;1.70;;
65039;SDS011;51606;45.000;38.612;2023-03-21T07:47:40;1.67;;;1.30;;
65039;SDS011;51606;45.000;38.612;2023-03-21T07:50:06;0.35;;;0.35;;
65039;SDS011;51606;45.000;38.612;2023-03-21T07:52:33;0.73;;;0.60;;
65039;SDS011;51606;45.000;38.612;2023-03-21T07:55:00;2.67;;;0.90;;
65039;SDS011;51606;45.000;38.612;2023-03-21T07:57:26;0.63;;;0.43;;
65039;SDS011;51606;45.000;38.612;2023-03-21T07:59:53;6.88;;;0.90;;
65039;SDS011;51606;45.000;38.612;2023-03-21T08:02:19;3.15;;;0.40;;
65039;SDS011;51606;45.000;38.612;2023-03-21T08:04:46;0.40;;;0.40;;
65039;SDS011;51606;45.000;38.612;2023-03-21T08:07:12;0.88;;;0.82;;
65039;SDS011;51606;45.000;38.612;2023-03-21T08:09:39;1.38;;;1.02;;
65039;SDS011;51606;45.000;38.612;2023-03-21T08:12:05;6.90;;;1.17;;
65039;SDS011;51606;45.000;38.612;2023-03-21T08:14:35;0.85;;;0.70;;
65039;SDS011;51606;45.000;38.612;2023-03-21T08:17:03;4.25;;;1.98;;
65039;SDS011;51606;45.000;38.612;2023-03-21T08:19:30;1.20;;;0.77;;
65039;SDS011;51606;45.000;38.612;2023-03-21T08:21:57;2.00;;;1.23;;
65039;SDS011;51606;45.000;38.612;2023-03-21T08:24:27;0.95;;;0.63;;
65039;SDS011;51606;45.000;38.612;2023-03-21T08:26:54;1.40;;;0.65;;
65039;SDS011;51606;45.000;38.612;2023-03-21T08:29:21;1.63;;;0.82;;
65039;SDS011;51606;45.000;38.612;2023-03-21T08:31:49;0.82;;;0.50;;
65039;SDS011;51606;45.000;38.612;2023-03-21T08:34:16;8.00;;;3.88;;
65039;SDS011;51606;45.000;38.612;2023-03-21T08:36:42;3.78;;;1.40;;
65039;SDS011;51606;45.000;38.612;2023-03-21T08:39:08;0.40;;;0.40;;
65039;SDS011;51606;45.000;38.612;2023-03-21T08:41:35;1.42;;;0.77;;
65039;SDS011;51606;45.000;38.612;2023-03-21T08:44:03;1.45;;;0.57;;
65039;SDS011;51606;45.000;38.612;2023-03-21T08:46:31;1.20;;;0.45;;
65039;SDS011;51606;45.000;38.612;2023-03-21T08:48:58;1.05;;;0.40;;
65039;SDS011;51606;45.000;38.612;2023-03-21T08:51:25;1.00;;;0.50;;
65039;SDS011;51606;45.000;38.612;2023-03-21T08:53:51;0.60;;;0.52;;
65039;SDS011;51606;45.000;38.612;2023-03-21T08:56:18;0.93;;;0.85;;
65039;SDS011;51606;45.000;38.612;2023-03-21T08:58:44;0.73;;;0.43;;
65039;SDS011;51606;45.000;38.612;2023-03-21T09:01:12;0.40;;;0.40;;
65039;SDS011;51606;45.000;38.612;2023-03-21T09:03:40;1.38;;;0.30;;
65039;SDS011;51606;45.000;38.612;2023-03-21T09:06:08;0.13;;;0.13;;
65039;SDS011;51606;45.000;38.612;2023-03-21T09:08:36;0.25;;;0.25;;
65039;SDS011;51606;45.000;38.612;2023-03-21T09:11:03;2.75;;;0.40;;
65039;SDS011;51606;45.000;38.612;2023-03-21T09:13:30;0.45;;;0.32;;
65039;SDS011;51606;45.000;38.612;2023-03-21T09:15:56;0.50;;;0.50;;
65039;SDS011;51606;45.000;38.612;2023-03-21T09:18:28;2.05;;;0.57;;
65039;SDS011;51606;45.000;38.612;2023-03-21T09:21:14;0.70;;;0.52;;
65039;SDS011;51606;45.000;38.612;2023-03-21T09:23:42;0.50;;;0.50;;
65039;SDS011;51606;45.000;38.612;2023-03-21T09:26:09;0.60;;;0.60;;
65039;SDS011;51606;45.000;38.612;2023-03-21T09:28:37;0.98;;;0.60;;
65039;SDS011;51606;45.000;38.612;2023-03-21T09:31:05;1.17;;;0.50;;
65039;SDS011;51606;45.000;38.612;2023-03-21T09:33:39;1.77;;;1.10;;
65039;SDS011;51606;45.000;38.612;2023-03-21T09:36:06;5.32;;;3.35;;
65039;SDS011;51606;45.000;38.612;2023-03-21T09:38:39;1.88;;;0.73;;
65039;SDS011;51606;45.000;38.612;2023-03-21T09:44:15;1.30;;;0.85;;
65039;SDS011;51606;45.000;38.612;2023-03-21T09:47:27;1.02;;;0.60;;
65039;SDS011;51606;45.000;38.612;2023-03-21T09:49:58;0.52;;;0.40;;
65039;SDS011;51606;45.000;38.612;2023-03-21T09:52:31;5.93;;;0.50;;
65039;SDS011;51606;45.000;38.612;2023-03-21T09:55:18;3.45;;;0.43;;
65039;SDS011;51606;45.000;38.612;2023-03-21T09:58:03;0.50;;;0.50;;
65039;SDS011;51606;45.000;38.612;2023-03-21T10:00:35;1.35;;;0.60;;
65039;SDS011;51606;45.000;38.612;2023-03-21T10:03:07;0.55;;;0.47;;
65039;SDS011;51606;45.000;38.612;2023-03-21T10:05:44;0.30;;;0.30;;
65039;SDS011;51606;45.000;38.612;2023-03-21T10:08:17;6.32;;;0.60;;
65039;SDS011;51606;45.000;38.612;2023-03-21T10:10:49;1.38;;;0.70;;
65039;SDS011;51606;45.000;38.612;2023-03-21T10:13:24;1.20;;;0.47;;
65039;SDS011;51606;45.000;38.612;2023-03-21T10:15:57;0.30;;;0.30;;
65039;SDS011;51606;45.000;38.612;2023-03-21T10:18:27;0.47;;;0.47;;
65039;SDS011;51606;45.000;38.612;2023-03-21T10:20:55;1.45;;;0.47;;
65039;SDS011;51606;45.000;38.612;2023-03-21T10:23:24;0.73;;;0.68;;
65039;SDS011;51606;45.000;38.612;2023-03-21T10:25:54;0.65;;;0.45;;
65039;SDS011;51606;45.000;38.612;2023-03-21T10:28:24;0.57;;;0.57;;
65039;SDS011;51606;45.000;38.612;2023-03-21T10:30:58;0.77;;;0.47;;
65039;SDS011;51606;45.000;38.612;2023-03-21T10:33:34;0.20;;;0.20;;
65039;SDS011;51606;45.000;38.612;2023-03-21T10:36:12;0.38;;;0.35;;
65039;SDS011;51606;45.000;38.612;2023-03-21T10:39:03;1.40;;;0.70;;
65039;SDS011;51606;45.000;38.612;2023-03-21T10:41:31;0.40;;;0.40;;
65039;SDS011;51606;45.000;38.612;2023-03-21T10:44:07;1.15;;;0.70;;
65039;SDS011;51606;45.000;38.612;2023-03-21T10:46:51;5.72;;;0.70;;
65039;SDS011;51606;45.000;38.612;2023-03-21T10:49:22;0.65;;;0.63;;
65039;SDS011;51606;45.000;38.612;2023-03-21T11:03:27;2.17;;;1.30;;
65039;SDS011;51606;45.000;38.612;2023-03-21T11:08:40;0.30;;;0.30;;
65039;SDS011;51606;45.000;38.612;2023-03-21T11:14:25;1.38;;;1.02;;
65039;SDS011;51606;45.000;38.612;2023-03-21T11:17:00;1.48;;;0.80;;
65039;SDS011;51606;45.000;38.612;2023-03-21T11:19:34;0.63;;;0.50;;
65039;SDS011;51606;45.000;38.612;2023-03-21T11:22:04;1.20;;;0.55;;
65039;SDS011;51606;45.000;38.612;2023-03-21T11:24:58;0.55;;;0.45;;
65039;SDS011;51606;45.000;38.612;2023-03-21T11:27:29;1.20;;;0.70;;
65039;SDS011;51606;45.000;38.612;2023-03-21T11:29:57;1.65;;;0.82;;
65039;SDS011;51606;45.000;38.612;2023-03-21T11:32:33;2.85;;;0.80;;
65039;SDS011;51606;45.000;38.612;2023-03-21T11:35:05;0.82;;;0.50;;
65039;SDS011;51606;45.000;38.612;2023-03-21T11:37:43;1.33;;;0.57;;
65039;SDS011;51606;45.000;38.612;2023-03-21T11:42:51;0.80;;;0.60;;
65039;SDS011;51606;45.000;38.612;2023-03-21T11:45:30;1.08;;;0.75;;
65039;SDS011;51606;45.000;38.612;2023-03-21T11:48:10;4.05;;;1.27;;
65039;SDS011;51606;45.000;38.612;2023-03-21T11:50:45;4.80;;;0.93;;
65039;SDS011;51606;45.000;38.612;2023-03-21T12:07:45;0.98;;;0.47;;
65039;SDS011;51606;45.000;38.612;2023-03-21T12:16:12;0.50;;;0.32;;
65039;SDS011;51606;45.000;38.612;2023-03-21T12:24:36;3.85;;;0.95;;
65039;SDS011;51606;45.000;38.612;2023-03-21T12:27:17;0.63;;;0.60;;
65039;SDS011;51606;45.000;38.612;2023-03-21T12:30:46;0.43;;;0.40;;
65039;SDS011;51606;45.000;38.612;2023-03-21T12:41:39;0.50;;;0.50;;
65039;SDS011;51606;45.000;38.612;2023-03-21T12:44:12;4.93;;;0.70;;
65039;SDS011;51606;45.000;38.612;2023-03-21T12:51:46;0.30;;;0.30;;
65039;SDS011;51606;45.000;38.612;2023-03-21T12:57:09;1.30;;;1.20;;
65039;SDS011;51606;45.000;38.612;2023-03-21T12:59:57;0.65;;;0.65;;
65039;SDS011;51606;45.000;38.612;2023-03-21T13:02:47;1.30;;;0.77;;
65039;SDS011;51606;45.000;38.612;2023-03-21T13:05:32;1.65;;;0.75;;
65039;SDS011;51606;45.000;38.612;2023-03-21T13:08:03;0.40;;;0.40;;
65039;SDS011;51606;45.000;38.612;2023-03-21T13:10:48;0.63;;;0.50;;
65039;SDS011;51606;45.000;38.612;2023-03-21T13:15:47;4.32;;;0.40;;
65039;SDS011;51606;45.000;38.612;2023-03-21T13:21:13;5.07;;;0.60;;
65039;SDS011;51606;45.000;38.612;2023-03-21T13:29:51;6.03;;;0.98;;
65039;SDS011;51606;45.000;38.612;2023-03-21T13:32:29;1.60;;;0.50;;
65039;SDS011;51606;45.000;38.612;2023-03-21T13:34:59;1.10;;;0.52;;
65039;SDS011;51606;45.000;38.612;2023-03-21T13:37:42;2.55;;;0.80;;
65039;SDS011;51606;45.000;38.612;2023-03-21T13:40:20;0.50;;;0.50;;
65039;SDS011;51606;45.000;38.612;2023-03-21T13:42:57;1.08;;;0.65;;
65039;SDS011;51606;45.000;38.612;2023-03-21T13:45:26;2.88;;;1.02;;
65039;SDS011;51606;45.000;38.612;2023-03-21T13:47:58;1.50;;;1.00;;
65039;SDS011;51606;45.000;38.612;2023-03-21T13:50:51;0.65;;;0.52;;
65039;SDS011;51606;45.000;38.612;2023-03-21T13:53:28;5.88;;;1.38;;
65039;SDS011;51606;45.000;38.612;2023-03-21T13:55:57;0.77;;;0.75;;
65039;SDS011;51606;45.000;38.612;2023-03-21T13:58:38;2.55;;;1.00;;
65039;SDS011;51606;45.000;38.612;2023-03-21T14:03:58;0.50;;;0.50;;
65039;SDS011;51606;45.000;38.612;2023-03-21T14:06:31;1.40;;;0.77;;
65039;SDS011;51606;45.000;38.612;2023-03-21T14:09:03;0.50;;;0.50;;
65039;SDS011;51606;45.000;38.612;2023-03-21T14:11:31;1.73;;;0.55;;
65039;SDS011;51606;45.000;38.612;2023-03-21T14:13:59;1.20;;;0.73;;
65039;SDS011;51606;45.000;38.612;2023-03-21T14:16:27;0.47;;;0.45;;
65039;SDS011;51606;45.000;38.612;2023-03-21T14:19:00;1.40;;;0.73;;
65039;SDS011;51606;45.000;38.612;2023-03-21T14:21:33;3.90;;;0.90;;
65039;SDS011;51606;45.000;38.612;2023-03-21T14:24:04;1.65;;;0.77;;
65039;SDS011;51606;45.000;38.612;2023-03-21T14:26:33;0.45;;;0.45;;
65039;SDS011;51606;45.000;38.612;2023-03-21T14:29:05;1.17;;;0.80;;
65039;SDS011;51606;45.000;38.612;2023-03-21T14:31:34;1.05;;;0.60;;
65039;SDS011;51606;45.000;38.612;2023-03-21T14:34:01;5.20;;;2.33;;
65039;SDS011;51606;45.000;38.612;2023-03-21T14:36:29;1.73;;;0.98;;
65039;SDS011;51606;45.000;38.612;2023-03-21T14:42:10;2.90;;;1.07;;
65039;SDS011;51606;45.000;38.612;2023-03-21T14:44:39;1.52;;;0.90;;
65039;SDS011;51606;45.000;38.612;2023-03-21T14:47:15;2.50;;;1.20;;
65039;SDS011;51606;45.000;38.612;2023-03-21T14:49:43;11.35;;;1.10;;
65039;SDS011;51606;45.000;38.612;2023-03-21T14:52:29;0.45;;;0.45;;
65039;SDS011;51606;45.000;38.612;2023-03-21T14:54:57;0.70;;;0.60;;
65039;SDS011;51606;45.000;38.612;2023-03-21T14:57:26;0.63;;;0.60;;
65039;SDS011;51606;45.000;38.612;2023-03-21T14:59:59;0.30;;;0.30;;
65039;SDS011;51606;45.000;38.612;2023-03-21T15:02:33;5.20;;;0.93;;
65039;SDS011;51606;45.000;38.612;2023-03-21T15:05:09;0.30;;;0.30;;
65039;SDS011;51606;45.000;38.612;2023-03-21T15:07:52;1.15;;;0.50;;
65039;SDS011;51606;45.000;38.612;2023-03-21T15:10:21;1.50;;;0.88;;
65039;SDS011;51606;45.000;38.612;2023-03-21T15:12:53;0.70;;;0.70;;
65039;SDS011;51606;45.000;38.612;2023-03-21T15:15:22;1.52;;;0.77;;
65039;SDS011;51606;45.000;38.612;2023-03-21T15:17:50;1.30;;;0.90;;
65039;SDS011;51606;45.000;38.612;2023-03-21T15:20:18;3.83;;;0.98;;
65039;SDS011;51606;45.000;38.612;2023-03-21T15:22:51;1.50;;;0.90;;
65039;SDS011;51606;45.000;38.612;2023-03-21T15:25:27;2.63;;;1.15;;
65039;SDS011;51606;45.000;38.612;2023-03-21T15:27:57;2.72;;;0.82;;
65039;SDS011;51606;45.000;38.612;2023-03-21T15:30:28;2.33;;;1.20;;
65039;SDS011;51606;45.000;38.612;2023-03-21T15:32:56;2.05;;;0.85;;
65039;SDS011;51606;45.000;38.612;2023-03-21T15:38:04;0.32;;;0.30;;
65039;SDS011;51606;45.000;38.612;2023-03-21T15:40:31;1.95;;;0.65;;
65039;SDS011;51606;45.000;38.612;2023-03-21T15:43:15;0.45;;;0.45;;
65039;SDS011;51606;45.000;38.612;2023-03-21T15:45:47;1.13;;;0.85;;
65039;SDS011;51606;45.000;38.612;2023-03-21T15:48:25;1.48;;;1.02;;
65039;SDS011;51606;45.000;38.612;2023-03-21T15:53:26;1.38;;;0.95;;
65039;SDS011;51606;45.000;38.612;2023-03-21T15:55:56;0.88;;;0.63;;
65039;SDS011;51606;45.000;38.612;2023-03-21T15:58:27;1.27;;;0.63;;
65039;SDS011;51606;45.000;38.612;2023-03-21T16:01:04;7.57;;;0.85;;
65039;SDS011;51606;45.000;38.612;2023-03-21T16:03:36;2.80;;;1.23;;
65039;SDS011;51606;45.000;38.612;2023-03-21T16:08:48;4.10;;;1.30;;
65039;SDS011;51606;45.000;38.612;2023-03-21T16:13:47;4.05;;;1.42;;
65039;SDS011;51606;45.000;38.612;2023-03-21T16:16:21;10.63;;;1.73;;
65039;SDS011;51606;45.000;38.612;2023-03-21T16:18:50;2.58;;;1.70;;
65039;SDS011;51606;45.000;38.612;2023-03-21T16:21:19;3.72;;;2.17;;
65039;SDS011;51606;45.000;38.612;2023-03-21T16:23:50;3.88;;;2.10;;
65039;SDS011;51606;45.000;38.612;2023-03-21T16:26:18;6.20;;;2.05;;
65039;SDS011;51606;45.000;38.612;2023-03-21T16:28:47;2.75;;;1.60;;
65039;SDS011;51606;45.000;38.612;2023-03-21T16:31:15;2.30;;;1.33;;
65039;SDS011;51606;45.000;38.612;2023-03-21T16:33:44;1.48;;;1.05;;
65039;SDS011;51606;45.000;38.612;2023-03-21T16:36:16;3.42;;;1.73;;
65039;SDS011;51606;45.000;38.612;2023-03-21T16:38:44;3.05;;;1.80;;
65039;SDS011;51606;45.000;38.612;2023-03-21T16:41:12;4.82;;;1.42;;
65039;SDS011;51606;45.000;38.612;2023-03-21T16:43:40;16.45;;;1.90;;
65039;SDS011;51606;45.000;38.612;2023-03-21T16:46:10;2.88;;;1.65;;
65039;SDS011;51606;45.000;38.612;2023-03-21T16:48:38;8.57;;;2.05;;
65039;SDS011;51606;45.000;38.612;2023-03-21T16:51:31;2.00;;;1.65;;
65039;SDS011;51606;45.000;38.612;2023-03-21T16:53:59;2.35;;;1.70;;
65039;SDS011;51606;45.000;38.612;2023-03-21T16:56:26;4.82;;;1.45;;
65039;SDS011;51606;45.000;38.612;2023-03-21T16:58:53;2.83;;;1.52;;
65039;SDS011;51606;45.000;38.612;2023-03-21T17:15:09;4.88;;;2.60;;
65039;SDS011;51606;45.000;38.612;2023-03-21T17:17:36;6.93;;;2.63;;
65039;SDS011;51606;45.000;38.612;2023-03-21T17:22:59;8.23;;;2.47;;
65039;SDS011;51606;45.000;38.612;2023-03-21T17:25:25;1.20;;;1.02;;
65039;SDS011;51606;45.000;38.612;2023-03-21T17:27:52;2.25;;;1.85;;
65039;SDS011;51606;45.000;38.612;2023-03-21T17:30:22;1.55;;;1.23;;
65039;SDS011;51606;45.000;38.612;2023-03-21T17:32:59;1.67;;;1.42;;
65039;SDS011;51606;45.000;38.612;2023-03-21T17:35:26;2.08;;;1.83;;
65039;SDS011;51606;45.000;38.612;2023-03-21T17:37:54;5.53;;;2.60;;
65039;SDS011;51606;45.000;38.612;2023-03-21T17:40:26;2.83;;;1.88;;
65039;SDS011;51606;45.000;38.612;2023-03-21T17:42:55;2.03;;;1.42;;
65039;SDS011;51606;45.000;38.612;2023-03-21T17:45:22;3.80;;;2.30;;
65039;SDS011;51606;45.000;38.612;2023-03-21T17:47:51;2.15;;;1.65;;
65039;SDS011;51606;45.000;38.612;2023-03-21T17:50:23;4.15;;;2.30;;
65039;SDS011;51606;45.000;38.612;2023-03-21T17:52:52;2.50;;;1.90;;
65039;SDS011;51606;45.000;38.612;2023-03-21T17:55:23;3.50;;;2.00;;
65039;SDS011;51606;45.000;38.612;2023-03-21T17:57:50;3.13;;;1.85;;
65039;SDS011;51606;45.000;38.612;2023-03-21T18:00:18;4.47;;;1.50;;
65039;SDS011;51606;45.000;38.612;2023-03-21T18:02:47;2.83;;;2.03;;
65039;SDS011;51606;45.000;38.612;2023-03-21T18:05:15;3.47;;;1.95;;
65039;SDS011;51606;45.000;38.612;2023-03-21T18:07:43;3.15;;;1.63;;
65039;SDS011;51606;45.000;38.612;2023-03-21T18:10:14;2.50;;;1.63;;
65039;SDS011;51606;45.000;38.612;2023-03-21T18:12:43;5.72;;;1.40;;
65039;SDS011;51606;45.000;38.612;2023-03-21T18:15:12;3.42;;;1.55;;
65039;SDS011;51606;45.000;38.612;2023-03-21T18:17:40;1.80;;;1.48;;
65039;SDS011;51606;45.000;38.612;2023-03-21T18:20:07;4.13;;;1.08;;
65039;SDS011;51606;45.000;38.612;2023-03-21T18:22:37;1.42;;;1.17;;
65039;SDS011;51606;45.000;38.612;2023-03-21T18:25:03;6.57;;;1.33;;
65039;SDS011;51606;45.000;38.612;2023-03-21T18:27:31;1.38;;;1.15;;
65039;SDS011;51606;45.000;38.612;2023-03-21T18:29:57;0.90;;;0.80;;
65039;SDS011;51606;45.000;38.612;2023-03-21T18:32:24;2.15;;;1.23;;
65039;SDS011;51606;45.000;38.612;2023-03-21T18:34:51;2.35;;;1.20;;
65039;SDS011;51606;45.000;38.612;2023-03-21T18:37:18;1.63;;;1.10;;
65039;SDS011;51606;45.000;38.612;2023-03-21T18:39:44;1.30;;;1.05;;
65039;SDS011;51606;45.000;38.612;2023-03-21T18:42:11;0.88;;;0.82;;
65039;SDS011;51606;45.000;38.612;2023-03-21T18:44:37;2.67;;;1.85;;
65039;SDS011;51606;45.000;38.612;2023-03-21T18:47:10;1.77;;;1.63;;
65039;SDS011;51606;45.000;38.612;2023-03-21T18:49:37;6.35;;;1.63;;
65039;SDS011;51606;45.000;38.612;2023-03-21T18:52:03;1.40;;;1.25;;
65039;SDS011;51606;45.000;38.612;2023-03-21T18:54:31;3.15;;;1.83;;
65039;SDS011;51606;45.000;38.612;2023-03-21T18:56:57;5.25;;;3.95;;
65039;SDS011;51606;45.000;38.612;2023-03-21T18:59:24;12.60;;;4.88;;
65039;SDS011;51606;45.000;38.612;2023-03-21T19:01:51;17.42;;;6.82;;
65039;SDS011;51606;45.000;38.612;2023-03-21T19:04:17;9.02;;;4.47;;
65039;SDS011;51606;45.000;38.612;2023-03-21T19:06:47;7.80;;;3.65;;
65039;SDS011;51606;45.000;38.612;2023-03-21T19:09:15;5.10;;;2.47;;
65039;SDS011;51606;45.000;38.612;2023-03-21T19:11:41;2.80;;;1.67;;
65039;SDS011;51606;45.000;38.612;2023-03-21T19:14:09;4.30;;;2.90;;
65039;SDS011;51606;45.000;38.612;2023-03-21T19:16:39;3.70;;;2.90;;
65039;SDS011;51606;45.000;38.612;2023-03-21T19:19:06;3.80;;;2.13;;
65039;SDS011;51606;45.000;38.612;2023-03-21T19:21:33;1.73;;;1.17;;
65039;SDS011;51606;45.000;38.612;2023-03-21T19:24:01;5.10;;;2.60;;
65039;SDS011;51606;45.000;38.612;2023-03-21T19:26:28;4.15;;;1.83;;
65039;SDS011;51606;45.000;38.612;2023-03-21T19:28:54;1.30;;;1.20;;
65039;SDS011;51606;45.000;38.612;2023-03-21T19:31:21;3.15;;;2.08;;
65039;SDS011;51606;45.000;38.612;2023-03-21T19:33:48;3.22;;;1.40;;
65039;SDS011;51606;45.000;38.612;2023-03-21T19:36:15;2.95;;;1.63;;
65039;SDS011;51606;45.000;38.612;2023-03-21T19:38:42;5.00;;;2.05;;
65039;SDS011;51606;45.000;38.612;2023-03-21T19:41:08;4.57;;;1.38;;
65039;SDS011;51606;45.000;38.612;2023-03-21T19:43:35;2.83;;;1.63;;
65039;SDS011;51606;45.000;38.612;2023-03-21T19:46:01;4.72;;;2.20;;
65039;SDS011;51606;45.000;38.612;2023-03-21T19:48:28;2.75;;;1.50;;
65039;SDS011;51606;45.000;38.612;2023-03-21T19:50:55;5.15;;;2.03;;
65039;SDS011;51606;45.000;38.612;2023-03-21T19:53:21;9.70;;;2.33;;
65039;SDS011;51606;45.000;38.612;2023-03-21T19:55:50;1.80;;;1.10;;
65039;SDS011;51606;45.000;38.612;2023-03-21T19:58:17;1.42;;;1.33;;
65039;SDS011;51606;45.000;38.612;2023-03-21T20:00:45;2.95;;;1.63;;
65039;SDS011;51606;45.000;38.612;2023-03-21T20:03:13;3.95;;;1.55;;
65039;SDS011;51606;45.000;38.612;2023-03-21T20:05:40;0.95;;;0.95;;
65039;SDS011;51606;45.000;38.612;2023-03-21T20:08:07;1.67;;;1.23;;
65039;SDS011;51606;45.000;38.612;2023-03-21T20:10:34;5.03;;;2.15;;
65039;SDS011;51606;45.000;38.612;2023-03-21T20:13:01;1.65;;;1.40;;
65039;SDS011;51606;45.000;38.612;2023-03-21T20:15:27;1.33;;;1.10;;
65039;SDS011;51606;45.000;38.612;2023-03-21T20:17:54;1.98;;;0.90;;
65039;SDS011;51606;45.000;38.612;2023-03-21T20:20:20;3.05;;;0.93;;
65039;SDS011;51606;45.000;38.612;2023-03-21T20:22:48;2.63;;;0.93;;
65039;SDS011;51606;45.000;38.612;2023-03-21T20:25:18;0.93;;;0.85;;
65039;SDS011;51606;45.000;38.612;2023-03-21T20:27:45;6.55;;;1.13;;
65039;SDS011;51606;45.000;38.612;2023-03-21T20:30:14;6.30;;;0.63;;
65039;SDS011;51606;45.000;38.612;2023-03-21T20:32:42;1.33;;;0.63;;
65039;SDS011;51606;45.000;38.612;2023-03-21T20:35:11;1.17;;;0.90;;
65039;SDS011;51606;45.000;38.612;2023-03-21T20:37:41;0.60;;;0.60;;
65039;SDS011;51606;45.000;38.612;2023-03-21T20:40:12;0.98;;;0.75;;
65039;SDS011;51606;45.000;38.612;2023-03-21T20:42:40;0.65;;;0.63;;
65039;SDS011;51606;45.000;38.612;2023-03-21T20:45:08;0.68;;;0.60;;
65039;SDS011;51606;45.000;38.612;2023-03-21T20:47:39;2.70;;;1.17;;
65039;SDS011;51606;45.000;38.612;2023-03-21T20:50:06;0.73;;;0.73;;
65039;SDS011;51606;45.000;38.612;2023-03-21T20:52:34;1.13;;;0.60;;
65039;SDS011;51606;45.000;38.612;2023-03-21T20:55:00;0.25;;;0.25;;
65039;SDS011;51606;45.000;38.612;2023-03-21T20:57:27;0.75;;;0.65;;
65039;SDS011;51606;45.000;38.612;2023-03-21T20:59:55;0.47;;;0.47;;
65039;SDS011;51606;45.000;38.612;2023-03-21T21:02:22;9.27;;;0.68;;
65039;SDS011;51606;45.000;38.612;2023-03-21T21:04:49;0.50;;;0.50;;
65039;SDS011;51606;45.000;38.612;2023-03-21T21:07:17;1.27;;;0.60;;
65039;SDS011;51606;45.000;38.612;2023-03-21T21:09:45;0.52;;;0.50;;
65039;SDS011;51606;45.000;38.612;2023-03-21T21:12:13;1.15;;;0.68;;
65039;SDS011;51606;45.000;38.612;2023-03-21T21:14:43;0.93;;;0.60;;
65039;SDS011;51606;45.000;38.612;2023-03-21T21:17:10;0.30;;;0.30;;
65039;SDS011;51606;45.000;38.612;2023-03-21T21:19:37;0.43;;;0.30;;
65039;SDS011;51606;45.000;38.612;2023-03-21T21:22:03;0.98;;;0.57;;
65039;SDS011;51606;45.000;38.612;2023-03-21T21:24:30;1.13;;;0.32;;
65039;SDS011;51606;45.000;38.612;2023-03-21T21:26:56;1.48;;;0.52;;
65039;SDS011;51606;45.000;38.612;2023-03-21T21:29:22;0.30;;;0.28;;
65039;SDS011;51606;45.000;38.612;2023-03-21T21:31:49;0.40;;;0.40;;
65039;SDS011;51606;45.000;38.612;2023-03-21T21:34:15;1.45;;;0.50;;
65039;SDS011;51606;45.000;38.612;2023-03-21T21:36:44;3.40;;;0.30;;
65039;SDS011;51606;45.000;38.612;2023-03-21T21:39:11;1.23;;;0.57;;